Valley River Center, Oregon
Current Conditions -  °F | °C
As of 6:54 PM on Thursday 27 Nov 2014 (Local Time) from KEUG Reporting Station
Overcast Overcast  
Wind Chill: 52°   Ceiling: 3600
Heat Index: 52°   Visibility: 10mi
Dew Point: 49°   Wind: 6mph
Humidity: 89%   Direction: 150°SSE
Pressure: 29.93"   Gusts: NA
Location:  44.0685°N, 123.082°W
Report Text: KEUG 280254Z 15005KT 10SM OVC036 11/09 A2993 RMK AO2 RAB07E23 SLP137 P0000 60003 T01110094 58013
Loading
Personal Weather Stations






























Interactive Weather Map New forecast layout! Learn more

10-Day Weather Forecast

Advertisements
Track Severe Weather on mobile